Alma, Arkansas
Current Conditions -  °F | °C
As of 8:53 AM on Tuesday 21 Oct 2014 (Local Time) from KFSM Reporting Station
Haze Haze  
Wind Chill: 61°   Ceiling: Unl
Heat Index: 61°   Visibility: 6mi
Dew Point: 58°   Wind: 5mph
Humidity: 90%   Direction: 60°ENE
Pressure: 30.13"   Gusts: NA
Location:  35.48°N, 94.22°W
Report Text: KFSM 211353Z 06004KT 6SM BR SCT043 16/14 A3013 RMK AO2 SLP201 T01610144
Loading
Personal Weather Stations






























Interactive Weather Map New forecast layout! Learn more

10-Day Weather Forecast

Advertisements
Track Severe Weather on mobile